createdAt,value
2019-04-22T00:00:44.840Z,97202.97
2019-04-22T00:01:34.544Z,97204.88
2019-04-22T00:02:22.894Z,97205.97
2019-04-22T00:03:17.980Z,97208.14
2019-04-22T00:04:10.026Z,97211.66
2019-04-22T00:05:05.763Z,97207.91
2019-04-22T00:06:05.581Z,97208.69
2019-04-22T00:06:59.519Z,97201.66
2019-04-22T00:07:55.507Z,97201.39
2019-04-22T00:08:36.085Z,97197.87
2019-04-22T00:09:37.055Z,97202.75
2019-04-22T00:10:26.526Z,97197.61
2019-04-22T00:11:23.577Z,97197.34
2019-04-22T00:12:06.099Z,97197.89
2019-04-22T00:12:53.106Z,97195.48
2019-04-22T00:13:47.159Z,97196.84
2019-04-22T00:14:28.263Z,97194.68
2019-04-22T00:15:19.981Z,97188.17
2019-04-22T00:16:24.650Z,97187.36
2019-04-22T00:17:07.253Z,97191.20
2019-04-22T00:18:00.232Z,97184.14
2019-04-22T00:19:01.774Z,97187.15
2019-04-22T00:19:43.765Z,97191.22
2019-04-22T00:20:30.186Z,97188.79
2019-04-22T00:21:19.489Z,97184.48
2019-04-22T00:22:17.929Z,97181.50
2019-04-22T00:22:56.715Z,97176.62
2019-04-22T00:23:51.549Z,97183.69
2019-04-22T00:24:40.223Z,97178.26
2019-04-22T00:25:34.830Z,97180.16
2019-04-22T00:26:23.445Z,97179.38
2019-04-22T00:27:14.064Z,97175.86
2019-04-22T00:28:02.736Z,97172.33
2019-04-22T00:28:58.266Z,97179.41
2019-04-22T00:30:02.394Z,97178.59
2019-04-22T00:30:28.164Z,97175.06
2019-04-22T00:31:40.426Z,97170.76
2019-04-22T00:32:46.416Z,97177.55
2019-04-22T00:33:39.294Z,97174.57
2019-04-22T00:34:30.181Z,97173.49
2019-04-22T00:35:18.223Z,97179.47
2019-04-22T00:36:12.762Z,97171.64
2019-04-22T00:37:06.184Z,97171.64
2019-04-22T00:37:59.787Z,97168.66
2019-04-22T00:38:44.146Z,97171.66
2019-04-22T00:39:36.574Z,97169.48
2019-04-22T00:40:28.203Z,97171.40
2019-04-22T00:41:13.242Z,97160.84
2019-04-22T00:42:04.571Z,97165.47
2019-04-22T00:42:53.075Z,97172.25
2019-04-22T00:43:53.034Z,97163.84
2019-04-22T00:44:39.088Z,97160.87
2019-04-22T00:45:27.842Z,97167.39
2019-04-22T00:46:19.325Z,97161.73
2019-04-22T00:47:14.661Z,97160.66
2019-04-22T00:48:00.895Z,97168.80
2019-04-22T00:49:07.076Z,97159.03
2019-04-22T00:50:34.759Z,97158.77
2019-04-22T00:51:22.491Z,97158.77
2019-04-22T00:52:20.624Z,97163.44
2019-04-22T00:53:04.418Z,97162.62
2019-04-22T00:53:57.504Z,97159.64
2019-04-22T00:54:49.231Z,97157.24
2019-04-22T00:55:31.404Z,97157.80
2019-04-22T00:56:26.286Z,97156.22
2019-04-22T00:57:19.979Z,97161.93
2019-04-22T00:58:08.087Z,97153.25
2019-04-22T00:58:56.312Z,97160.36
2019-04-22T00:59:45.618Z,97153.85
2019-04-22T01:00:37.891Z,97153.59
2019-04-22T01:01:28.855Z,97149.52
2019-04-22T01:02:24.482Z,97157.16
2019-04-22T01:03:10.966Z,97150.92
2019-04-22T01:04:04.190Z,97157.17
2019-04-22T01:05:07.740Z,97152.88
2019-04-22T01:05:40.792Z,97153.41
2019-04-22T01:06:45.883Z,97152.61
2019-04-22T01:07:18.780Z,97154.24
2019-04-22T01:08:12.907Z,97153.98
2019-04-22T01:09:05.785Z,97148.55
2019-04-22T01:09:58.977Z,97150.77
2019-04-22T01:10:47.459Z,97143.98
2019-04-22T01:11:33.580Z,97151.05
2019-04-22T01:12:26.496Z,97146.17
2019-04-22T01:13:21.583Z,97153.81
2019-04-22T01:14:04.874Z,97147.84
2019-04-22T01:14:55.352Z,97150.03
2019-04-22T01:15:51.248Z,97154.96
2019-04-22T01:16:37.179Z,97147.95
2019-04-22T01:17:27.654Z,97149.86
2019-04-22T01:18:15.735Z,97153.40
2019-04-22T01:19:10.440Z,97148.02
2019-04-22T01:21:41.027Z,97147.00
2019-04-22T01:22:38.216Z,97145.14
2019-04-22T01:23:24.023Z,97136.74
2019-04-22T01:24:12.243Z,97144.89
2019-04-22T01:25:03.571Z,97144.66
2019-04-22T01:25:49.371Z,97139.52
2019-04-22T01:26:38.844Z,97138.44
2019-04-22T01:27:27.276Z,97139.55
2019-04-22T01:28:18.002Z,97131.70
2019-04-22T01:29:05.108Z,97138.48
2019-04-22T01:29:59.776Z,97130.63
2019-04-22T01:30:43.875Z,97128.72
2019-04-22T01:31:30.482Z,97133.88
2019-04-22T01:32:22.732Z,97138.49
2019-04-22T01:33:14.070Z,97133.88
2019-04-22T01:34:12.196Z,97133.64
2019-04-22T01:35:00.968Z,97135.00
2019-04-22T01:35:56.880Z,97127.41
2019-04-22T01:36:51.601Z,97128.77
2019-04-22T01:37:36.103Z,97130.40
2019-04-22T01:38:31.318Z,97125.80
2019-04-22T01:39:22.689Z,97123.09
2019-04-22T01:40:17.738Z,97126.38
2019-04-22T01:41:09.686Z,97131.80
2019-04-22T01:41:59.935Z,97122.30
2019-04-22T01:42:59.805Z,97123.94
2019-04-22T01:43:52.189Z,97125.84
2019-04-22T01:44:35.840Z,97118.53
2019-04-22T01:45:19.353Z,97120.46
2019-04-22T01:46:08.343Z,97125.08
2019-04-22T01:47:03.462Z,97124.00
2019-04-22T01:47:58.510Z,97120.47
2019-04-22T01:48:50.621Z,97122.42
2019-04-22T01:50:26.180Z,97122.70
2019-04-22T01:51:12.455Z,97119.17
2019-04-22T01:52:11.529Z,97122.97
2019-04-22T01:53:06.482Z,97121.62
2019-04-22T01:53:51.753Z,97118.67
2019-04-22T01:54:40.319Z,97125.19
2019-04-22T01:55:31.071Z,97119.77
2019-04-22T01:56:24.103Z,97120.84
2019-04-22T01:57:06.549Z,97114.88
2019-04-22T01:58:00.075Z,97118.69
2019-04-22T01:58:43.898Z,97123.30
2019-04-22T01:59:37.039Z,97118.69
2019-04-22T02:00:38.563Z,97116.52
2019-04-22T02:01:32.461Z,97116.28
2019-04-22T02:02:16.377Z,97106.79
2019-04-22T02:03:14.076Z,97113.56
2019-04-22T02:04:00.922Z,97114.66
2019-04-22T02:04:57.901Z,97104.91
2019-04-22T02:05:35.759Z,97108.97
2019-04-22T02:06:36.375Z,97115.75
2019-04-22T02:07:28.012Z,97110.33
2019-04-22T02:08:15.035Z,97110.06
2019-04-22T02:09:09.477Z,97103.55
2019-04-22T02:09:55.181Z,97111.68
2019-04-22T02:10:49.291Z,97101.38
2019-04-22T02:11:43.560Z,97103.28
2019-04-22T02:12:30.841Z,97107.34
2019-04-22T02:13:21.371Z,97098.41
2019-04-22T02:14:11.699Z,97101.11
2019-04-22T02:14:57.862Z,97097.05
2019-04-22T02:15:56.352Z,97097.86
2019-04-22T02:16:43.867Z,97103.83
2019-04-22T02:19:17.309Z,97096.00
2019-04-22T02:20:06.188Z,97095.73
2019-04-22T02:20:54.996Z,97089.50
2019-04-22T02:21:42.754Z,97087.34
2019-04-22T02:23:30.324Z,97089.23
2019-04-22T02:24:02.449Z,97096.87
2019-04-22T02:24:51.182Z,97089.28
2019-04-22T02:25:51.688Z,97084.95
2019-04-22T02:26:51.732Z,97085.49
2019-04-22T02:27:32.342Z,97083.33
2019-04-22T02:28:25.720Z,97080.34
2019-04-22T02:29:06.531Z,97085.53
2019-04-22T02:29:57.867Z,97081.75
2019-04-22T02:31:16.872Z,97077.41
2019-04-22T02:35:11.247Z,97066.85
2019-04-22T02:36:20.202Z,97066.85
2019-04-22T02:36:43.239Z,97072.27
2019-04-22T02:37:54.504Z,97063.64
2019-04-22T02:39:20.244Z,97071.77
2019-04-22T02:40:09.690Z,97071.77
2019-04-22T02:41:15.711Z,97067.70
2019-04-22T02:41:50.908Z,97074.48
2019-04-22T02:42:43.236Z,97068.52
2019-04-22T02:44:31.365Z,97066.94
2019-04-22T02:45:09.630Z,97070.69
2019-04-22T02:47:07.941Z,97067.17
2019-04-22T02:47:42.212Z,97071.00
2019-04-22T02:49:31.231Z,97071.55
2019-04-22T02:51:21.939Z,97065.87
2019-04-22T02:52:06.397Z,97060.22
2019-04-22T02:52:50.153Z,97063.16
2019-04-22T02:54:17.288Z,97068.89
2019-04-22T02:55:23.519Z,97064.83
2019-04-22T02:56:27.247Z,97061.89
2019-04-22T02:57:03.247Z,97070.30
2019-04-22T02:57:47.417Z,97065.95
2019-04-22T02:58:55.129Z,97061.09
2019-04-22T02:59:34.459Z,97068.71
2019-04-22T03:00:35.378Z,97069.25
2019-04-22T03:01:23.482Z,97066.55
2019-04-22T03:02:07.670Z,97056.84
2019-04-22T03:03:11.439Z,97059.28
2019-04-22T03:04:57.707Z,97062.00
2019-04-22T03:05:36.524Z,97052.83
2019-04-22T03:06:30.424Z,97059.59
2019-04-22T03:07:07.594Z,97055.55
2019-04-22T03:08:06.660Z,97055.00
2019-04-22T03:08:55.814Z,97055.27
2019-04-22T03:10:49.363Z,97051.78
2019-04-22T03:13:18.958Z,97054.73
2019-04-22T03:14:51.600Z,97048.81
2019-04-22T03:15:42.555Z,97054.23
2019-04-22T03:16:34.907Z,97048.55
2019-04-22T03:17:25.571Z,97056.67
2019-04-22T03:18:09.176Z,97049.90
2019-04-22T03:19:02.890Z,97054.50
2019-04-22T03:20:42.834Z,97059.96
2019-04-22T03:21:31.245Z,97059.15
2019-04-22T03:22:20.987Z,97052.66
2019-04-22T03:24:15.807Z,97057.80
2019-04-22T03:25:24.171Z,97056.48
2019-04-22T03:26:00.441Z,97059.73
2019-04-22T03:26:48.919Z,97054.86
2019-04-22T03:27:30.116Z,97055.14
2019-04-22T03:28:27.359Z,97054.37
2019-04-22T03:29:17.826Z,97045.43
2019-04-22T03:31:13.844Z,97055.76
2019-04-22T03:33:40.022Z,97051.20
2019-04-22T03:36:18.638Z,97047.14
2019-04-22T03:38:56.070Z,97051.52
2019-04-22T03:42:07.715Z,97046.91
2019-04-22T03:44:02.675Z,97042.85
2019-04-22T03:44:42.148Z,97046.91
2019-04-22T03:45:28.462Z,97047.19
2019-04-22T03:46:21.095Z,97047.73
2019-04-22T03:49:07.052Z,97038.02
2019-04-22T03:49:58.574Z,97044.52
2019-04-22T03:51:43.388Z,97045.88
2019-04-22T03:53:15.011Z,97048.31
2019-04-22T03:55:45.023Z,97048.05
2019-04-22T03:57:07.237Z,97041.81
2019-04-22T03:57:40.559Z,97045.88
2019-04-22T03:58:18.968Z,97040.77
2019-04-22T03:59:22.493Z,97040.77
2019-04-22T04:00:08.394Z,97044.83
2019-04-22T04:03:25.393Z,97045.92
2019-04-22T04:04:18.674Z,97039.73
2019-04-22T04:05:54.154Z,97047.58
2019-04-22T04:08:31.849Z,97040.00
2019-04-22T04:09:24.090Z,97043.28
2019-04-22T04:10:27.807Z,97042.75
2019-04-22T04:10:53.293Z,97038.42
2019-04-22T04:15:20.993Z,97035.21
2019-04-22T04:16:07.937Z,97027.91
2019-04-22T04:18:53.350Z,97037.41
2019-04-22T04:19:36.778Z,97038.49
2019-04-22T04:20:21.868Z,97033.63
2019-04-22T04:21:22.904Z,97035.25
2019-04-22T04:21:58.840Z,97029.03
2019-04-22T04:23:14.242Z,97034.20
2019-04-22T04:23:50.240Z,97028.80
2019-04-22T04:24:50.940Z,97035.02
2019-04-22T04:26:26.496Z,97029.64
2019-04-22T04:27:06.719Z,97028.28
2019-04-22T04:28:10.658Z,97031.53
2019-04-22T04:29:51.064Z,97031.53
2019-04-22T04:30:31.789Z,97032.88
2019-04-22T04:31:30.119Z,97028.28
2019-04-22T04:32:18.771Z,97029.09
2019-04-22T04:32:57.086Z,97033.16
2019-04-22T04:33:48.391Z,97032.34
2019-04-22T04:37:33.128Z,97029.64
2019-04-22T04:38:11.461Z,97032.61
2019-04-22T04:39:00.350Z,97023.95
2019-04-22T04:40:00.367Z,97036.13
2019-04-22T04:40:37.355Z,97030.72
2019-04-22T04:41:37.016Z,97035.05
2019-04-22T04:42:33.265Z,97032.34
2019-04-22T04:44:01.516Z,97034.20
2019-04-22T04:45:18.522Z,97035.28
2019-04-22T04:46:45.444Z,97034.44
2019-04-22T04:47:39.081Z,97033.09
2019-04-22T04:48:13.774Z,97030.11
2019-04-22T04:50:05.839Z,97033.08
2019-04-22T04:50:48.332Z,97032.23
2019-04-22T04:52:39.738Z,97032.23
2019-04-22T04:53:20.181Z,97033.31
2019-04-22T04:54:21.446Z,97037.61
2019-04-22T04:55:46.818Z,97037.60
2019-04-22T04:56:46.973Z,97037.60
2019-04-22T04:57:33.848Z,97037.29
2019-04-22T04:59:16.916Z,97029.95
2019-04-22T05:00:35.087Z,97042.63
2019-04-22T05:02:40.024Z,97039.91
2019-04-22T05:03:20.662Z,97037.71
2019-04-22T05:04:14.354Z,97042.31
2019-04-22T05:05:55.070Z,97033.88
2019-04-22T05:07:36.298Z,97035.73
2019-04-22T05:08:29.610Z,97034.91
2019-04-22T05:10:21.275Z,97038.66
2019-04-22T05:11:11.532Z,97028.87
2019-04-22T05:13:23.418Z,97033.11
2019-04-22T05:14:19.104Z,97030.67
2019-04-22T05:15:04.158Z,97031.70
2019-04-22T05:16:11.497Z,97037.38
2019-04-22T05:17:35.169Z,97037.88
2019-04-22T05:18:24.077Z,97032.95
2019-04-22T05:19:15.751Z,97028.88
2019-04-22T05:20:06.732Z,97032.91
2019-04-22T05:21:39.949Z,97032.84
2019-04-22T05:22:34.096Z,97028.73
2019-04-22T05:23:30.481Z,97029.54
2019-04-22T05:24:18.844Z,97032.20
2019-04-22T05:25:05.981Z,97031.62
2019-04-22T05:25:52.542Z,97026.73
2019-04-22T05:26:52.700Z,97025.05
2019-04-22T05:28:23.689Z,97031.75
2019-04-22T05:29:19.186Z,97029.81
2019-04-22T05:30:56.717Z,97031.91
2019-04-22T05:31:55.337Z,97022.92
2019-04-22T05:32:40.175Z,97016.94
2019-04-22T05:33:32.199Z,97014.98
2019-04-22T05:34:17.447Z,97023.89
2019-04-22T05:35:06.758Z,97028.17
2019-04-22T05:35:53.671Z,97025.70
2019-04-22T05:36:47.228Z,97024.84
2019-04-22T05:37:40.493Z,97027.00
2019-04-22T05:38:34.898Z,97025.05
2019-04-22T05:39:15.815Z,97020.64
2019-04-22T05:40:17.688Z,97021.17
2019-04-22T05:41:00.596Z,97030.34
2019-04-22T05:41:48.311Z,97026.22
2019-04-22T05:42:39.559Z,97023.17
2019-04-22T05:43:28.929Z,97023.38
2019-04-22T05:45:58.882Z,97023.77
2019-04-22T05:46:52.998Z,97018.55
2019-04-22T05:47:46.377Z,97020.37
2019-04-22T05:48:41.632Z,97024.38
2019-04-22T05:49:27.166Z,97026.20
2019-04-22T05:50:14.476Z,97028.29
2019-04-22T05:51:04.569Z,97021.16
2019-04-22T05:51:48.125Z,97027.61
2019-04-22T05:52:46.840Z,97027.53
2019-04-22T05:53:40.071Z,97013.61
2019-04-22T05:54:27.361Z,97025.20
2019-04-22T05:55:22.456Z,97022.14
2019-04-22T05:56:15.527Z,97018.81
2019-04-22T05:57:04.024Z,97022.26
2019-04-22T05:57:54.484Z,97026.25
2019-04-22T05:58:46.375Z,97016.39
2019-04-22T05:59:42.258Z,97013.33
2019-04-22T06:00:30.966Z,97017.86
2019-04-22T06:02:21.052Z,97013.09
2019-04-22T06:03:04.543Z,97018.43
2019-04-22T06:04:04.310Z,97010.73
2019-04-22T06:04:46.365Z,97008.24
2019-04-22T06:05:31.915Z,97005.41
2019-04-22T06:06:18.024Z,97009.94
2019-04-22T06:07:07.018Z,97008.48
2019-04-22T06:08:59.159Z,97000.67
2019-04-22T06:09:47.270Z,96996.50
2019-04-22T06:10:39.874Z,97002.12
2019-04-22T06:11:25.689Z,96999.30
2019-04-22T06:12:12.319Z,97000.34
2019-04-22T06:13:01.040Z,96998.06
2019-04-22T06:13:58.748Z,96997.73
2019-04-22T06:14:50.634Z,96992.73
2019-04-22T06:15:36.238Z,96989.10
2019-04-22T06:16:33.767Z,97000.43
2019-04-22T06:17:24.740Z,96998.70
2019-04-22T06:18:16.067Z,96993.70
2019-04-22T06:19:08.743Z,96993.59
2019-04-22T06:19:54.162Z,96990.25
2019-04-22T06:20:53.155Z,96990.14
2019-04-22T06:21:45.958Z,96998.19
2019-04-22T06:22:38.661Z,96996.72
2019-04-22T06:24:18.510Z,96987.48
2019-04-22T06:25:01.159Z,96983.83
2019-04-22T06:26:05.842Z,96992.14
2019-04-22T06:27:35.445Z,96992.45
2019-04-22T06:28:31.552Z,96987.99
2019-04-22T06:29:18.000Z,96991.41
2019-04-22T06:30:04.368Z,96984.77
2019-04-22T06:31:08.446Z,96990.35
2019-04-22T06:32:11.795Z,96988.61
2019-04-22T06:32:31.326Z,96988.48
2019-04-22T06:33:31.984Z,96997.09
2019-04-22T06:34:17.618Z,96985.25
2019-04-22T06:35:11.422Z,96982.14
2019-04-22T06:35:56.461Z,96990.19
2019-04-22T06:36:53.663Z,96991.42
2019-04-22T06:37:46.479Z,96984.23
2019-04-22T06:38:43.178Z,96978.64
2019-04-22T06:39:26.709Z,96988.61
2019-04-22T06:40:16.401Z,96983.58
2019-04-22T06:41:04.530Z,96982.88
2019-04-22T06:41:59.139Z,96983.52
2019-04-22T06:42:42.976Z,96983.72
2019-04-22T06:43:35.557Z,96983.58
2019-04-22T06:44:26.009Z,96977.73
2019-04-22T06:46:04.234Z,96976.06
2019-04-22T06:46:52.359Z,96975.36
2019-04-22T06:48:52.440Z,96966.08
2019-04-22T06:50:16.848Z,96973.97
2019-04-22T06:51:08.203Z,96967.81
2019-04-22T06:52:02.507Z,96963.56
2019-04-22T06:52:55.710Z,96966.14
2019-04-22T06:53:41.113Z,96964.04
2019-04-22T06:54:32.646Z,96959.79
2019-04-22T06:55:22.935Z,96961.03
2019-04-22T06:56:14.354Z,96958.70
2019-04-22T06:57:04.388Z,96959.36
2019-04-22T06:57:53.319Z,96960.56
2019-04-22T06:58:41.061Z,96963.95
2019-04-22T06:59:31.208Z,96962.39
2019-04-22T07:00:24.550Z,96966.58
2019-04-22T07:01:43.167Z,96955.48
2019-04-22T07:02:10.695Z,96958.61
2019-04-22T07:03:22.623Z,96963.36
2019-04-22T07:03:54.012Z,96954.99
2019-04-22T07:04:34.852Z,96960.30
2019-04-22T07:05:28.028Z,96957.70
2019-04-22T07:06:35.759Z,96959.71
2019-04-22T07:08:04.439Z,96962.33
2019-04-22T07:10:43.457Z,96959.32
2019-04-22T07:11:18.891Z,96956.16
2019-04-22T07:12:21.169Z,96960.90
2019-04-22T07:13:00.874Z,96957.18
2019-04-22T07:14:01.672Z,96958.34
2019-04-22T07:14:50.899Z,96953.50
2019-04-22T07:15:47.125Z,96957.18
2019-04-22T07:16:31.934Z,96945.49
2019-04-22T07:17:15.790Z,96954.89
2019-04-22T07:18:14.674Z,96954.46
2019-04-22T07:19:02.203Z,96942.77
2019-04-22T07:19:52.808Z,96936.55
2019-04-22T07:20:47.263Z,96951.41
2019-04-22T07:21:35.224Z,96940.04
2019-04-22T07:22:25.743Z,96944.16
2019-04-22T07:23:13.430Z,96939.06
2019-04-22T07:24:21.211Z,96931.47
2019-04-22T07:24:56.192Z,96937.87
2019-04-22T07:26:30.178Z,96927.94
2019-04-22T07:27:40.682Z,96923.07
2019-04-22T07:28:20.088Z,96932.45
2019-04-22T07:29:07.473Z,96926.78
2019-04-22T07:30:01.994Z,96925.42
2019-04-22T07:30:54.657Z,96921.69
2019-04-22T07:31:45.013Z,96922.05
2019-04-22T07:32:53.366Z,96931.67
2019-04-22T07:33:27.760Z,96930.91
2019-04-22T07:34:22.246Z,96923.05
2019-04-22T07:35:08.336Z,96927.52
2019-04-22T07:36:54.838Z,96929.16
2019-04-22T07:38:28.305Z,96928.51
2019-04-22T07:39:24.039Z,96924.75
2019-04-22T07:40:13.784Z,96923.97
2019-04-22T07:40:59.424Z,96924.09
2019-04-22T07:41:50.888Z,96923.55
2019-04-22T07:42:45.518Z,96918.98
2019-04-22T07:43:51.640Z,96918.77
2019-04-22T07:44:36.724Z,96913.83
2019-04-22T07:45:23.734Z,96913.05
2019-04-22T07:46:09.532Z,96925.17
2019-04-22T07:47:11.376Z,96918.66
2019-04-22T07:47:52.103Z,96912.39
2019-04-22T07:49:39.496Z,96917.43
2019-04-22T07:51:28.216Z,96907.34
2019-04-22T07:52:05.161Z,96900.52
2019-04-22T07:52:51.974Z,96898.11
2019-04-22T07:53:44.373Z,96909.91
2019-04-22T07:54:31.664Z,96907.13
2019-04-22T07:55:27.327Z,96905.76
2019-04-22T07:56:18.806Z,96905.77
2019-04-22T07:57:18.445Z,96897.48
2019-04-22T07:58:00.730Z,96902.41
2019-04-22T07:58:50.343Z,96896.91
2019-04-22T07:59:43.657Z,96901.56
2019-04-22T08:00:29.723Z,96891.23
2019-04-22T08:01:20.470Z,96898.66
2019-04-22T08:02:10.430Z,96893.96
2019-04-22T08:03:06.698Z,96887.41
2019-04-22T08:04:01.903Z,96893.43
2019-04-22T08:04:55.794Z,96892.04
2019-04-22T08:05:42.264Z,96885.16
2019-04-22T08:06:26.387Z,96890.83
2019-04-22T08:07:24.081Z,96889.66
2019-04-22T08:08:17.531Z,96883.77
2019-04-22T08:09:01.786Z,96887.48
2019-04-22T08:09:54.210Z,96888.72
2019-04-22T08:10:43.108Z,96891.30
2019-04-22T08:12:18.718Z,96885.70
2019-04-22T08:12:33.247Z,96882.33
2019-04-22T08:13:11.680Z,96885.52
2019-04-22T08:13:55.259Z,96893.02
2019-04-22T08:14:45.676Z,96879.64
2019-04-22T08:15:41.472Z,96877.61
2019-04-22T08:16:26.367Z,96878.02
2019-04-22T08:17:41.577Z,96881.50
2019-04-22T08:18:15.730Z,96875.14
2019-04-22T08:19:04.098Z,96878.05
2019-04-22T08:19:48.471Z,96871.11
2019-04-22T08:20:42.770Z,96879.32
2019-04-22T08:21:33.375Z,96871.77
2019-04-22T08:22:15.682Z,96869.76
2019-04-22T08:23:08.772Z,96865.77
2019-04-22T08:24:01.222Z,96869.06
2019-04-22T08:24:57.780Z,96869.00
2019-04-22T08:25:42.915Z,96873.27
2019-04-22T08:26:33.521Z,96869.88
2019-04-22T08:27:22.472Z,96864.07
2019-04-22T08:28:17.874Z,96867.92
2019-04-22T08:29:06.786Z,96870.00
2019-04-22T08:30:11.746Z,96865.63
2019-04-22T08:30:51.957Z,96863.77
2019-04-22T08:31:40.069Z,96858.72
2019-04-22T08:32:28.452Z,96855.09
2019-04-22T08:33:22.095Z,96855.59
2019-04-22T08:34:55.677Z,96859.55
2019-04-22T08:36:11.932Z,96857.64
2019-04-22T08:36:53.979Z,96853.77
2019-04-22T08:38:33.583Z,96846.84
2019-04-22T08:39:13.604Z,96853.66
2019-04-22T08:40:09.589Z,96855.09
2019-04-22T08:41:23.323Z,96857.58
2019-04-22T08:42:08.332Z,96850.53
2019-04-22T08:43:07.234Z,96852.02
2019-04-22T08:45:31.878Z,96854.78
2019-04-22T08:46:27.433Z,96855.86
2019-04-22T08:47:19.073Z,96851.17
2019-04-22T08:48:01.226Z,96843.95
2019-04-22T08:48:57.677Z,96854.11
2019-04-22T08:49:50.738Z,96845.86
2019-04-22T08:50:33.394Z,96849.11
2019-04-22T08:51:25.375Z,96846.21
2019-04-22T08:53:09.465Z,96843.97
2019-04-22T08:53:59.861Z,96853.33
2019-04-22T08:54:51.295Z,96842.73
2019-04-22T08:56:32.239Z,96849.95
2019-04-22T08:57:18.358Z,96844.84
2019-04-22T08:58:20.329Z,96849.03
2019-04-22T08:59:12.339Z,96836.27
2019-04-22T08:59:56.974Z,96843.61
2019-04-22T09:00:47.550Z,96840.30
2019-04-22T09:02:30.116Z,96834.22
2019-04-22T09:03:10.686Z,96841.38
2019-04-22T09:04:02.267Z,96833.12
2019-04-22T09:04:58.344Z,96838.28
2019-04-22T09:06:01.543Z,96836.72
2019-04-22T09:06:49.697Z,96826.66
2019-04-22T09:07:28.751Z,96832.38
2019-04-22T09:08:18.794Z,96833.25
2019-04-22T09:09:17.646Z,96835.83
2019-04-22T09:10:48.565Z,96822.24
2019-04-22T09:12:49.987Z,96831.99
2019-04-22T09:13:20.622Z,96831.47
2019-04-22T09:14:31.331Z,96829.32
2019-04-22T09:15:18.333Z,96830.95
2019-04-22T09:15:49.116Z,96830.77
2019-04-22T09:16:45.933Z,96831.63
2019-04-22T09:17:34.954Z,96829.47
2019-04-22T09:18:21.976Z,96833.28
2019-04-22T09:19:12.631Z,96833.30
2019-04-22T09:20:10.875Z,96833.76
2019-04-22T09:21:10.366Z,96817.54
2019-04-22T09:22:04.732Z,96833.59
2019-04-22T09:22:53.723Z,96825.34
2019-04-22T09:23:30.287Z,96827.36
2019-04-22T09:24:23.666Z,96827.59
2019-04-22T09:25:06.724Z,96824.67
2019-04-22T09:26:03.498Z,96822.13
2019-04-22T09:26:54.253Z,96812.24
2019-04-22T09:27:44.526Z,96821.59
2019-04-22T09:28:37.696Z,96821.05
2019-04-22T09:29:30.482Z,96817.72
2019-04-22T09:30:22.792Z,96816.97
2019-04-22T09:31:08.054Z,96820.13
2019-04-22T09:32:05.532Z,96817.38
2019-04-22T09:32:58.053Z,96819.80
2019-04-22T09:33:38.914Z,96815.06
2019-04-22T09:34:35.412Z,96821.84
2019-04-22T09:35:24.911Z,96817.12
2019-04-22T09:37:11.615Z,96820.94
2019-04-22T09:38:16.975Z,96810.27
2019-04-22T09:38:41.179Z,96809.70
2019-04-22T09:39:34.664Z,96804.36
2019-04-22T09:40:28.909Z,96808.95
2019-04-22T09:41:20.915Z,96807.16
2019-04-22T09:42:10.808Z,96798.67
2019-04-22T09:43:21.855Z,96799.27
2019-04-22T09:43:52.341Z,96809.20
2019-04-22T09:44:40.323Z,96810.59
2019-04-22T09:45:27.467Z,96806.64
2019-04-22T09:46:25.008Z,96804.50
2019-04-22T09:47:11.680Z,96804.30
2019-04-22T09:48:08.665Z,96800.34
2019-04-22T09:49:00.292Z,96792.99
2019-04-22T09:49:49.688Z,96802.34
2019-04-22T09:50:40.439Z,96797.41
2019-04-22T09:51:25.377Z,96803.59
2019-04-22T09:52:14.919Z,96796.06
2019-04-22T09:53:08.697Z,96796.87
2019-04-22T09:54:01.209Z,96803.22
2019-04-22T09:54:57.880Z,96793.13
2019-04-22T09:55:34.567Z,96796.12
2019-04-22T09:56:33.310Z,96793.38
2019-04-22T09:57:21.425Z,96789.63
2019-04-22T09:58:14.819Z,96785.25
2019-04-22T09:59:14.018Z,96782.69
2019-04-22T09:59:57.919Z,96793.20
2019-04-22T10:00:48.461Z,96792.22
2019-04-22T10:02:28.117Z,96789.67
2019-04-22T10:03:16.619Z,96784.91
2019-04-22T10:04:05.374Z,96789.28
2019-04-22T10:04:57.239Z,96785.10
2019-04-22T10:05:52.495Z,96785.72
2019-04-22T10:06:40.584Z,96783.75
2019-04-22T10:07:27.621Z,96779.78
2019-04-22T10:08:24.500Z,96777.19
2019-04-22T10:09:27.187Z,96781.37
2019-04-22T10:10:03.462Z,96767.66
2019-04-22T10:10:48.724Z,96782.34
2019-04-22T10:11:51.097Z,96773.97
2019-04-22T10:12:32.186Z,96761.45
2019-04-22T10:13:18.743Z,96773.75
2019-04-22T10:14:10.342Z,96762.61
2019-04-22T10:14:54.013Z,96767.97
2019-04-22T10:15:48.148Z,96766.76
2019-04-22T10:17:32.283Z,96765.12
2019-04-22T10:18:26.209Z,96757.77
2019-04-22T10:19:11.441Z,96761.34
2019-04-22T10:20:05.589Z,96762.94
2019-04-22T10:20:56.466Z,96751.19
2019-04-22T10:22:43.995Z,96756.14
2019-04-22T10:23:24.984Z,96747.77
2019-04-22T10:24:13.805Z,96748.55
2019-04-22T10:25:11.999Z,96752.89
2019-04-22T10:26:02.524Z,96752.08
2019-04-22T10:27:40.787Z,96743.10
2019-04-22T10:28:33.455Z,96750.04
2019-04-22T10:29:26.377Z,96741.27
2019-04-22T10:30:13.010Z,96739.44
2019-04-22T10:31:19.229Z,96734.84
2019-04-22T10:31:49.748Z,96731.83
2019-04-22T10:32:46.180Z,96742.73
2019-04-22T10:33:25.807Z,96740.12
2019-04-22T10:34:11.762Z,96737.50
2019-04-22T10:35:15.418Z,96728.08
2019-04-22T10:36:01.518Z,96728.07
2019-04-22T10:36:57.511Z,96731.39
2019-04-22T10:37:42.752Z,96719.20
2019-04-22T10:38:32.573Z,96727.12
2019-04-22T10:39:35.701Z,96712.55
2019-04-22T10:40:42.804Z,96719.68
2019-04-22T10:41:32.420Z,96718.64
2019-04-22T10:42:23.059Z,96716.77
2019-04-22T10:43:12.115Z,96728.66
2019-04-22T10:44:03.337Z,96711.09
2019-04-22T10:44:53.785Z,96711.09
2019-04-22T10:45:43.904Z,96700.59
2019-04-22T10:46:34.020Z,96701.37
2019-04-22T10:47:25.500Z,96714.30
2019-04-22T10:48:14.554Z,96704.32
2019-04-22T10:49:04.237Z,96699.89
2019-04-22T10:49:56.374Z,96706.22
2019-04-22T10:50:46.784Z,96694.08
2019-04-22T10:51:37.227Z,96696.63
2019-04-22T10:52:27.725Z,96686.69
2019-04-22T10:53:19.537Z,96699.42
2019-04-22T10:54:09.655Z,96699.42
2019-04-22T10:54:59.476Z,96698.83
2019-04-22T10:55:51.068Z,96698.83
2019-04-22T10:56:41.093Z,96681.69
2019-04-22T10:57:31.858Z,96696.78
2019-04-22T10:58:23.006Z,96686.55
2019-04-22T10:59:16.323Z,96686.55
2019-04-22T11:00:05.647Z,96701.06
2019-04-22T11:00:58.075Z,96689.69
2019-04-22T11:01:48.623Z,96683.64
2019-04-22T11:02:37.571Z,96693.12
2019-04-22T11:03:28.559Z,96691.79
2019-04-22T11:04:19.355Z,96685.14
2019-04-22T11:05:08.309Z,96685.14
2019-04-22T11:05:59.451Z,96679.05
2019-04-22T11:06:56.013Z,96664.62
2019-04-22T11:07:46.276Z,96664.62
2019-04-22T11:08:38.832Z,96668.69
2019-04-22T11:09:23.482Z,96678.54
2019-04-22T11:10:29.358Z,96672.00
2019-04-22T11:11:16.159Z,96657.48
2019-04-22T11:12:01.365Z,96646.13
2019-04-22T11:12:45.184Z,96646.13
2019-04-22T11:13:35.835Z,96657.62
2019-04-22T11:14:26.558Z,96660.83
2019-04-22T11:15:15.914Z,96657.67
2019-04-22T11:16:07.599Z,96657.67
2019-04-22T11:16:58.720Z,96556.73
2019-04-22T11:17:47.555Z,96660.71
2019-04-22T11:18:37.845Z,96650.08
2019-04-22T11:19:28.066Z,96650.08
2019-04-22T11:20:19.844Z,96653.18
2019-04-22T11:21:09.966Z,96653.84
2019-04-22T11:22:09.683Z,96651.98
2019-04-22T11:22:51.053Z,96651.98
2019-04-22T11:23:40.771Z,96644.27
2019-04-22T11:24:32.676Z,96659.72
2019-04-22T11:25:21.728Z,96655.79
2019-04-22T11:26:12.215Z,96646.84